createdAt,value
2022-08-07T00:00:30.823Z,14.69
2022-08-07T00:03:00.056Z,14.69
2022-08-07T00:05:30.631Z,14.79
2022-08-07T00:08:00.009Z,14.79
2022-08-07T00:10:30.527Z,14.69
2022-08-07T00:13:02.073Z,14.74
2022-08-07T00:15:38.562Z,14.72
2022-08-07T00:18:18.793Z,14.60
2022-08-07T00:20:49.395Z,14.65
2022-08-07T00:23:17.459Z,14.65
2022-08-07T00:25:45.860Z,14.59
2022-08-07T00:28:21.987Z,14.64
2022-08-07T00:30:49.951Z,14.64
2022-08-07T00:33:19.487Z,14.64
2022-08-07T00:35:49.770Z,14.56
2022-08-07T00:38:30.967Z,14.61
2022-08-07T00:40:59.668Z,14.64
2022-08-07T00:43:59.156Z,14.55
2022-08-07T00:46:15.243Z,14.54
2022-08-07T00:48:44.771Z,14.55
2022-08-07T00:51:17.771Z,14.47
2022-08-07T00:53:50.640Z,14.51
2022-08-07T00:56:23.539Z,14.55
2022-08-07T00:58:58.198Z,14.46
2022-08-07T01:01:26.082Z,14.53
2022-08-07T01:04:00.178Z,14.54
2022-08-07T01:06:28.367Z,14.43
2022-08-07T01:08:58.582Z,14.39
2022-08-07T01:12:23.439Z,14.42
2022-08-07T01:14:16.875Z,14.41
2022-08-07T01:16:46.790Z,14.36
2022-08-07T01:19:19.043Z,14.43
2022-08-07T01:21:50.325Z,14.38
2022-08-07T01:24:21.814Z,14.38
2022-08-07T01:26:52.146Z,14.34
2022-08-07T01:29:20.498Z,14.44
2022-08-07T01:31:50.023Z,14.42
2022-08-07T01:34:19.082Z,14.46
2022-08-07T01:36:57.635Z,14.44
2022-08-07T01:39:26.805Z,14.39
2022-08-07T01:42:38.076Z,14.40
2022-08-07T01:44:55.770Z,14.31
2022-08-07T01:48:17.577Z,14.34
2022-08-07T01:50:11.812Z,14.32
2022-08-07T01:52:49.404Z,14.37
2022-08-07T01:55:24.227Z,14.31
2022-08-07T01:58:05.900Z,14.28
2022-08-07T02:00:45.336Z,14.31
2022-08-07T02:03:21.748Z,14.27
2022-08-07T02:05:59.783Z,14.22
2022-08-07T02:08:30.812Z,14.18
2022-08-07T02:10:59.563Z,14.19
2022-08-07T02:13:57.260Z,14.19
2022-08-07T02:16:16.670Z,14.17
2022-08-07T02:18:47.608Z,14.16
2022-08-07T02:21:16.367Z,14.15
2022-08-07T02:23:45.728Z,14.23
2022-08-07T02:26:33.149Z,14.20
2022-08-07T02:29:02.219Z,14.10
2022-08-07T02:31:30.013Z,14.16
2022-08-07T02:34:03.242Z,14.14
2022-08-07T02:36:32.945Z,13.85
2022-08-07T02:39:02.659Z,13.89
2022-08-07T02:41:50.521Z,13.83
2022-08-07T02:44:19.179Z,13.89
2022-08-07T02:46:52.579Z,13.80
2022-08-07T02:49:56.096Z,13.78
2022-08-07T02:52:10.573Z,13.83
2022-08-07T02:54:42.779Z,13.80
2022-08-07T02:57:13.497Z,13.82
2022-08-07T02:59:42.296Z,13.85
2022-08-07T03:02:10.783Z,13.84
2022-08-07T03:04:39.077Z,13.82
2022-08-07T03:07:10.419Z,13.85
2022-08-07T03:09:43.420Z,13.83
2022-08-07T03:12:21.648Z,13.80
2022-08-07T03:14:52.301Z,13.83
2022-08-07T03:17:22.129Z,13.81
2022-08-07T03:19:54.755Z,13.80
2022-08-07T03:22:24.184Z,13.81
2022-08-07T03:24:59.825Z,13.84
2022-08-07T03:27:30.783Z,13.79
2022-08-07T03:30:12.926Z,13.75
2022-08-07T03:32:49.148Z,13.79
2022-08-07T03:35:27.567Z,13.68
2022-08-07T03:38:13.298Z,13.67
2022-08-07T03:40:44.365Z,13.68
2022-08-07T03:43:14.917Z,13.67
2022-08-07T03:45:43.602Z,13.65
2022-08-07T03:48:16.444Z,13.65
2022-08-07T03:50:55.873Z,13.59
2022-08-07T03:53:30.230Z,13.54
2022-08-07T03:56:14.011Z,13.60
2022-08-07T03:59:08.476Z,13.57
2022-08-07T04:01:32.253Z,13.62
2022-08-07T04:04:00.559Z,13.58
2022-08-07T04:06:37.460Z,13.60
2022-08-07T04:09:06.316Z,13.57
2022-08-07T04:12:21.174Z,13.56
2022-08-07T04:14:37.576Z,13.57
2022-08-07T04:17:21.212Z,13.56
2022-08-07T04:19:52.309Z,13.59
2022-08-07T04:22:23.355Z,13.58
2022-08-07T04:24:55.552Z,13.59
2022-08-07T04:27:26.474Z,13.64
2022-08-07T04:30:01.197Z,13.65
2022-08-07T04:32:34.445Z,13.61
2022-08-07T04:35:05.547Z,13.66
2022-08-07T04:37:52.825Z,13.65
2022-08-07T04:40:21.939Z,13.73
2022-08-07T04:42:54.726Z,13.78
2022-08-07T04:46:00.684Z,13.83
2022-08-07T04:48:27.910Z,13.85
2022-08-07T04:51:01.360Z,13.90
2022-08-07T04:54:01.000Z,13.96
2022-08-07T04:58:15.262Z,14.05
2022-08-07T05:00:11.304Z,14.09
2022-08-07T05:02:08.947Z,14.19
2022-08-07T05:04:50.244Z,14.30
2022-08-07T05:07:36.515Z,14.33
2022-08-07T05:10:07.796Z,14.44
2022-08-07T05:12:51.464Z,14.59
2022-08-07T05:15:24.106Z,14.89
2022-08-07T05:17:56.940Z,15.05
2022-08-07T05:20:27.217Z,15.13
2022-08-07T05:22:58.055Z,15.16
2022-08-07T05:25:37.409Z,15.28
2022-08-07T05:28:22.573Z,15.34
2022-08-07T05:30:52.335Z,15.35
2022-08-07T05:33:21.846Z,15.48
2022-08-07T05:35:50.013Z,15.51
2022-08-07T05:39:00.803Z,15.54
2022-08-07T05:41:14.010Z,15.57
2022-08-07T05:44:01.482Z,15.68
2022-08-07T05:46:32.311Z,15.66
2022-08-07T05:49:01.409Z,15.76
2022-08-07T05:51:40.626Z,15.81
2022-08-07T05:54:29.802Z,15.91
2022-08-07T05:56:56.326Z,15.89
2022-08-07T05:59:24.419Z,15.98
2022-08-07T06:01:52.390Z,16.06
2022-08-07T06:04:21.706Z,16.11
2022-08-07T06:07:03.740Z,16.18
2022-08-07T06:09:44.912Z,16.24
2022-08-07T06:12:21.014Z,16.32
2022-08-07T06:15:39.519Z,16.42
2022-08-07T06:18:13.928Z,16.46
2022-08-07T06:20:51.061Z,16.54
2022-08-07T06:24:36.712Z,16.65
2022-08-07T06:26:20.284Z,16.73
2022-08-07T06:28:52.776Z,16.76
2022-08-07T06:31:20.776Z,16.91
2022-08-07T06:33:52.124Z,17.03
2022-08-07T06:36:27.523Z,17.21
2022-08-07T06:40:16.829Z,17.24
2022-08-07T06:42:02.351Z,17.44
2022-08-07T06:44:33.949Z,17.37
2022-08-07T06:47:12.086Z,17.50
2022-08-07T06:49:52.022Z,17.65
2022-08-07T06:52:31.354Z,17.74
2022-08-07T06:55:32.814Z,17.80
2022-08-07T06:57:56.878Z,17.81
2022-08-07T07:00:25.662Z,18.01
2022-08-07T07:02:57.706Z,18.14
2022-08-07T07:06:04.435Z,18.16
2022-08-07T07:08:18.882Z,18.35
2022-08-07T07:10:54.996Z,18.43
2022-08-07T07:13:55.984Z,18.50
2022-08-07T07:16:19.968Z,18.61
2022-08-07T07:18:50.146Z,18.69
2022-08-07T07:21:20.102Z,18.66
2022-08-07T07:24:10.288Z,18.77
2022-08-07T07:26:37.966Z,18.86
2022-08-07T07:29:56.396Z,18.91
2022-08-07T07:31:56.901Z,18.98
2022-08-07T07:34:30.908Z,19.17
2022-08-07T07:37:14.793Z,19.18
2022-08-07T07:39:54.390Z,19.35
2022-08-07T07:42:25.931Z,19.52
2022-08-07T07:45:01.082Z,19.58
2022-08-07T07:47:28.999Z,19.58
2022-08-07T07:50:35.971Z,19.66
2022-08-07T07:52:48.212Z,19.81
2022-08-07T07:55:21.468Z,20.01
2022-08-07T07:57:54.089Z,20.04
2022-08-07T08:00:34.040Z,20.10
2022-08-07T08:03:06.887Z,20.10
2022-08-07T08:05:53.683Z,20.27
2022-08-07T08:08:35.212Z,20.25
2022-08-07T08:11:07.959Z,20.28
2022-08-07T08:13:52.924Z,20.27
2022-08-07T08:16:25.218Z,20.35
2022-08-07T08:18:53.323Z,20.25
2022-08-07T08:22:00.719Z,20.38
2022-08-07T08:24:45.361Z,20.37
2022-08-07T08:27:16.679Z,20.40
2022-08-07T08:29:54.820Z,20.63
2022-08-07T08:32:38.446Z,20.60
2022-08-07T08:35:08.534Z,20.73
2022-08-07T08:38:00.716Z,20.75
2022-08-07T08:40:27.854Z,20.80
2022-08-07T08:43:01.815Z,20.87
2022-08-07T08:45:41.505Z,20.89
2022-08-07T08:48:28.469Z,20.95
2022-08-07T08:51:14.737Z,21.27
2022-08-07T08:53:55.965Z,21.32
2022-08-07T08:56:25.490Z,21.51
2022-08-07T08:59:06.541Z,21.22
2022-08-07T09:01:53.813Z,21.29
2022-08-07T09:04:30.714Z,21.28
2022-08-07T09:07:01.391Z,21.29
2022-08-07T09:09:43.249Z,21.33
2022-08-07T09:12:20.000Z,21.21
2022-08-07T09:16:22.504Z,21.15
2022-08-07T09:18:31.054Z,21.28
2022-08-07T09:21:02.632Z,21.35
2022-08-07T09:24:29.084Z,21.65
2022-08-07T09:26:28.743Z,21.90
2022-08-07T09:30:01.864Z,21.80
2022-08-07T09:31:56.099Z,21.76
2022-08-07T09:34:27.323Z,21.55
2022-08-07T09:36:59.912Z,21.67
2022-08-07T09:39:54.190Z,21.61
2022-08-07T09:42:33.736Z,21.77
2022-08-07T09:47:51.540Z,21.91
2022-08-07T09:48:11.795Z,21.87
2022-08-07T09:50:47.760Z,21.91
2022-08-07T09:53:20.188Z,21.68
2022-08-07T09:56:37.415Z,22.06
2022-08-07T09:59:14.666Z,21.92
2022-08-07T10:01:54.587Z,21.93
2022-08-07T10:04:58.741Z,22.08
2022-08-07T10:07:52.916Z,22.03
2022-08-07T10:10:28.270Z,22.14
2022-08-07T10:13:15.748Z,21.96
2022-08-07T10:16:08.041Z,22.07
2022-08-07T10:18:59.282Z,22.18
2022-08-07T10:22:12.633Z,22.25
2022-08-07T10:24:47.675Z,22.27
2022-08-07T10:27:30.234Z,22.41
2022-08-07T10:30:14.996Z,22.48
2022-08-07T10:33:06.888Z,22.50
2022-08-07T10:35:56.028Z,22.17
2022-08-07T10:38:48.163Z,22.50
2022-08-07T10:41:47.413Z,22.73
2022-08-07T10:44:13.515Z,22.83
2022-08-07T10:46:44.231Z,22.82
2022-08-07T10:49:17.054Z,23.02
2022-08-07T10:52:01.801Z,22.97
2022-08-07T10:54:53.114Z,22.70
2022-08-07T10:57:35.655Z,23.02
2022-08-07T11:00:07.330Z,22.84
2022-08-07T11:02:40.310Z,22.77
2022-08-07T11:05:15.383Z,22.93
2022-08-07T11:07:59.205Z,23.14
2022-08-07T11:10:31.250Z,23.09
2022-08-07T11:13:05.317Z,23.28
2022-08-07T11:15:36.036Z,23.40
2022-08-07T11:18:07.129Z,23.30
2022-08-07T11:20:42.334Z,23.23
2022-08-07T11:23:20.548Z,23.47
2022-08-07T11:25:55.898Z,23.58
2022-08-07T11:28:37.840Z,23.74
2022-08-07T11:31:08.797Z,23.95
2022-08-07T11:33:53.730Z,23.83
2022-08-07T11:36:36.013Z,23.39
2022-08-07T11:39:08.079Z,23.53
2022-08-07T11:42:01.702Z,23.65
2022-08-07T11:44:52.829Z,23.63
2022-08-07T11:47:56.081Z,23.53
2022-08-07T11:50:44.255Z,23.85
2022-08-07T11:53:17.694Z,23.95
2022-08-07T11:56:24.822Z,23.98
2022-08-07T11:58:55.883Z,23.78
2022-08-07T12:01:59.498Z,23.83
2022-08-07T12:04:35.714Z,24.01
2022-08-07T12:07:18.962Z,24.11
2022-08-07T12:09:52.028Z,24.03
2022-08-07T12:12:21.261Z,24.33
2022-08-07T12:15:01.501Z,24.45
2022-08-07T12:17:37.882Z,24.30
2022-08-07T12:20:20.927Z,24.43
2022-08-07T12:23:37.203Z,24.50
2022-08-07T12:26:28.951Z,24.68
2022-08-07T12:29:02.818Z,24.16
2022-08-07T12:31:53.096Z,24.21
2022-08-07T12:34:27.056Z,24.19
2022-08-07T12:36:55.594Z,24.51
2022-08-07T12:39:43.818Z,24.59
2022-08-07T12:42:13.806Z,24.42
2022-08-07T12:44:45.720Z,24.81
2022-08-07T12:47:21.496Z,24.43
2022-08-07T12:50:04.687Z,24.68
2022-08-07T12:52:39.614Z,24.66
2022-08-07T12:55:16.543Z,24.70
2022-08-07T12:58:00.878Z,24.67
2022-08-07T13:00:36.029Z,24.61
2022-08-07T13:03:27.515Z,24.90
2022-08-07T13:06:21.581Z,24.84
2022-08-07T13:08:56.343Z,24.88
2022-08-07T13:12:02.035Z,25.17
2022-08-07T13:14:26.166Z,25.18
2022-08-07T13:17:02.433Z,25.08
2022-08-07T13:19:50.447Z,25.31
2022-08-07T13:22:28.953Z,25.15
2022-08-07T13:25:02.857Z,25.20
2022-08-07T13:28:13.051Z,25.14
2022-08-07T13:30:41.412Z,25.12
2022-08-07T13:34:30.402Z,25.31
2022-08-07T13:36:07.132Z,25.38
2022-08-07T13:38:41.966Z,25.51
2022-08-07T13:41:13.833Z,25.33
2022-08-07T13:43:42.883Z,25.45
2022-08-07T13:46:25.571Z,25.30
2022-08-07T13:48:58.709Z,25.52
2022-08-07T13:52:22.861Z,25.23
2022-08-07T13:54:22.558Z,25.14
2022-08-07T13:56:55.959Z,25.45
2022-08-07T13:59:31.612Z,25.46
2022-08-07T14:02:07.635Z,25.46
2022-08-07T14:04:49.354Z,25.52
2022-08-07T14:07:18.879Z,25.18
2022-08-07T14:10:01.490Z,25.33
2022-08-07T14:12:41.822Z,25.43
2022-08-07T14:15:12.197Z,25.51
2022-08-07T14:18:15.711Z,25.53
2022-08-07T14:20:42.836Z,25.42
2022-08-07T14:23:31.527Z,25.63
2022-08-07T14:26:28.020Z,25.32
2022-08-07T14:29:02.967Z,25.45
2022-08-07T14:31:43.090Z,25.65
2022-08-07T14:34:27.194Z,25.75
2022-08-07T14:36:57.527Z,25.52
2022-08-07T14:40:17.665Z,25.39
2022-08-07T14:42:20.357Z,25.65
2022-08-07T14:44:53.641Z,25.71
2022-08-07T14:47:23.189Z,25.48
2022-08-07T14:49:56.940Z,25.70
2022-08-07T14:52:28.734Z,25.59
2022-08-07T14:54:56.871Z,25.46
2022-08-07T15:03:18.965Z,25.61
2022-08-07T15:05:54.304Z,25.60
2022-08-07T15:08:32.271Z,25.32
2022-08-07T15:11:02.911Z,25.53
2022-08-07T15:13:37.084Z,25.58
2022-08-07T15:16:11.116Z,25.31
2022-08-07T15:18:46.012Z,25.44
2022-08-07T15:25:14.760Z,25.57
2022-08-07T15:27:10.879Z,25.50
2022-08-07T15:30:09.685Z,25.41
2022-08-07T15:36:00.689Z,25.41
2022-08-07T15:38:31.196Z,25.49
2022-08-07T15:41:22.888Z,25.11
2022-08-07T15:43:55.707Z,25.28
2022-08-07T15:49:16.086Z,25.44
2022-08-07T15:54:27.456Z,25.56
2022-08-07T15:56:57.348Z,25.54
2022-08-07T15:59:39.232Z,25.61
2022-08-07T16:02:09.959Z,25.34
2022-08-07T16:04:44.043Z,25.33
2022-08-07T16:08:31.290Z,24.96
2022-08-07T16:10:05.794Z,25.40
2022-08-07T16:12:41.074Z,25.50
2022-08-07T16:15:54.899Z,25.25
2022-08-07T16:18:43.513Z,25.31
2022-08-07T16:22:02.088Z,25.34
2022-08-07T16:24:34.531Z,25.23
2022-08-07T16:27:18.097Z,25.30
2022-08-07T16:30:11.910Z,25.38
2022-08-07T16:32:55.294Z,25.08
2022-08-07T16:35:56.591Z,24.89
2022-08-07T16:38:59.878Z,24.72
2022-08-07T16:41:54.070Z,24.32
2022-08-07T16:45:15.321Z,24.24
2022-08-07T16:48:05.017Z,23.92
2022-08-07T16:51:07.361Z,24.20
2022-08-07T16:54:05.961Z,23.95
2022-08-07T16:56:50.055Z,24.14
2022-08-07T16:59:46.810Z,23.97
2022-08-07T17:02:53.004Z,23.94
2022-08-07T17:06:22.489Z,23.85
2022-08-07T17:09:08.671Z,23.97
2022-08-07T17:12:02.079Z,23.74
2022-08-07T17:14:22.093Z,23.84
2022-08-07T17:16:55.940Z,23.90
2022-08-07T17:20:00.749Z,23.83
2022-08-07T17:22:30.143Z,23.64
2022-08-07T17:25:15.203Z,23.65
2022-08-07T17:27:59.256Z,23.69
2022-08-07T17:30:31.450Z,23.52
2022-08-07T17:34:09.021Z,23.62
2022-08-07T17:36:00.541Z,23.39
2022-08-07T17:38:34.065Z,23.38
2022-08-07T17:42:01.195Z,23.26
2022-08-07T17:44:03.116Z,23.18
2022-08-07T17:46:37.262Z,23.09
2022-08-07T17:49:11.592Z,23.23
2022-08-07T17:51:59.806Z,23.04
2022-08-07T17:54:52.973Z,23.05
2022-08-07T17:57:56.105Z,23.04
2022-08-07T18:00:33.666Z,22.99
2022-08-07T18:03:17.926Z,22.89
2022-08-07T18:06:03.341Z,22.77
2022-08-07T18:08:49.312Z,22.64
2022-08-07T18:12:07.066Z,22.68
2022-08-07T18:14:23.755Z,22.72
2022-08-07T18:16:58.699Z,22.65
2022-08-07T18:21:10.227Z,22.58
2022-08-07T18:22:26.250Z,22.43
2022-08-07T18:25:01.478Z,22.32
2022-08-07T18:27:49.303Z,22.17
2022-08-07T18:30:32.401Z,22.16
2022-08-07T18:33:23.653Z,21.99
2022-08-07T18:35:55.576Z,21.91
2022-08-07T18:38:59.167Z,21.85
2022-08-07T18:41:20.797Z,21.72
2022-08-07T18:43:57.853Z,21.55
2022-08-07T18:46:33.911Z,21.60
2022-08-07T18:50:35.199Z,21.58
2022-08-07T18:52:38.217Z,21.49
2022-08-07T18:54:55.311Z,21.36
2022-08-07T18:57:37.031Z,21.24
2022-08-07T19:00:32.545Z,21.13
2022-08-07T19:03:11.673Z,21.08
2022-08-07T19:06:04.224Z,21.01
2022-08-07T19:08:36.334Z,20.91
2022-08-07T19:11:36.498Z,20.83
2022-08-07T19:14:02.403Z,20.68
2022-08-07T19:17:05.042Z,20.62
2022-08-07T19:19:36.758Z,20.56
2022-08-07T19:22:15.721Z,20.56
2022-08-07T19:24:48.705Z,20.35
2022-08-07T19:28:57.867Z,20.40
2022-08-07T19:31:03.754Z,20.35
2022-08-07T19:32:59.884Z,20.33
2022-08-07T19:35:33.049Z,20.25
2022-08-07T19:38:02.636Z,20.09
2022-08-07T19:40:38.723Z,20.08
2022-08-07T19:43:45.025Z,20.05
2022-08-07T19:46:19.023Z,20.10
2022-08-07T19:48:54.607Z,20.07
2022-08-07T19:51:52.068Z,20.05
2022-08-07T19:54:33.036Z,19.88
2022-08-07T19:58:03.204Z,19.79
2022-08-07T19:59:54.475Z,19.78
2022-08-07T20:02:28.715Z,19.68
2022-08-07T20:04:56.643Z,19.65
2022-08-07T20:07:47.271Z,19.69
2022-08-07T20:10:35.352Z,19.53
2022-08-07T20:13:07.276Z,19.51
2022-08-07T20:15:51.281Z,19.66
2022-08-07T20:18:32.039Z,19.45
2022-08-07T20:21:02.312Z,19.41
2022-08-07T20:23:43.054Z,19.46
2022-08-07T20:26:29.602Z,19.47
2022-08-07T20:29:10.506Z,19.29
2022-08-07T20:31:46.549Z,19.32
2022-08-07T20:34:14.520Z,19.25
2022-08-07T20:36:43.637Z,19.23
2022-08-07T20:39:52.017Z,19.25
2022-08-07T20:42:11.823Z,19.08
2022-08-07T20:44:46.064Z,19.19
2022-08-07T20:47:19.192Z,19.18
2022-08-07T20:49:59.586Z,19.12
2022-08-07T20:52:51.247Z,19.08
2022-08-07T20:55:23.898Z,19.02
2022-08-07T20:57:59.964Z,18.96
2022-08-07T21:00:42.141Z,18.97
2022-08-07T21:03:11.045Z,18.86
2022-08-07T21:05:50.678Z,18.91
2022-08-07T21:08:36.413Z,18.91
2022-08-07T21:11:10.905Z,18.75
2022-08-07T21:13:57.038Z,18.70
2022-08-07T21:16:32.963Z,18.68
2022-08-07T21:19:00.728Z,18.59
2022-08-07T21:21:33.301Z,18.61
2022-08-07T21:24:22.463Z,18.52
2022-08-07T21:26:57.663Z,18.55
2022-08-07T21:29:30.555Z,18.52
2022-08-07T21:32:46.870Z,18.42
2022-08-07T21:34:55.536Z,18.47
2022-08-07T21:37:57.243Z,18.49
2022-08-07T21:40:23.280Z,18.29
2022-08-07T21:42:57.027Z,18.36
2022-08-07T21:46:05.398Z,18.25
2022-08-07T21:48:28.214Z,18.27
2022-08-07T21:51:04.087Z,18.16
2022-08-07T21:53:33.512Z,18.17
2022-08-07T21:56:16.870Z,18.22
2022-08-07T21:59:08.301Z,18.02
2022-08-07T22:01:50.270Z,18.16
2022-08-07T22:04:27.695Z,18.01
2022-08-07T22:06:59.432Z,17.99
2022-08-07T22:09:31.534Z,17.97
2022-08-07T22:12:10.158Z,18.01
2022-08-07T22:14:59.445Z,17.96
2022-08-07T22:17:36.781Z,17.86
2022-08-07T22:20:10.683Z,17.90
2022-08-07T22:22:44.676Z,17.78
2022-08-07T22:25:17.136Z,17.68
2022-08-07T22:28:20.079Z,17.74
2022-08-07T22:30:41.517Z,17.64
2022-08-07T22:33:10.492Z,17.66
2022-08-07T22:35:41.504Z,17.58
2022-08-07T22:38:18.622Z,17.57
2022-08-07T22:40:54.348Z,17.61
2022-08-07T22:43:31.401Z,17.63
2022-08-07T22:46:46.973Z,17.43
2022-08-07T22:49:33.681Z,17.39
2022-08-07T22:52:11.409Z,17.33
2022-08-07T22:55:17.075Z,17.36
2022-08-07T22:58:03.685Z,17.34
2022-08-07T23:00:34.842Z,17.32
2022-08-07T23:03:17.015Z,17.31
2022-08-07T23:06:07.537Z,17.32
2022-08-07T23:08:58.666Z,17.32
2022-08-07T23:12:00.316Z,17.32
2022-08-07T23:14:48.583Z,17.24
2022-08-07T23:17:27.234Z,17.22
2022-08-07T23:20:51.591Z,17.16
2022-08-07T23:24:04.189Z,17.06
2022-08-07T23:26:56.190Z,17.05
2022-08-07T23:29:43.329Z,17.04
2022-08-07T23:34:21.413Z,17.01
2022-08-07T23:35:23.542Z,16.91
2022-08-07T23:38:11.555Z,16.94
2022-08-07T23:40:49.186Z,16.82
2022-08-07T23:43:47.159Z,16.74
2022-08-07T23:46:34.027Z,16.69
2022-08-07T23:49:42.283Z,16.67
2022-08-07T23:53:12.003Z,16.66
2022-08-07T23:55:46.988Z,16.62
2022-08-07T23:58:08.185Z,16.66
